sensor_id;sensor_type;location;lat;lon;timestamp;pressure;altitude;pressure_sealevel;temperature;humidity
40570;BME280;26270;34.428;-119.710;2022-12-07T00:01:05;101341.49;;;16.74;57.55
40570;BME280;26270;34.428;-119.710;2022-12-07T00:03:33;101342.88;;;16.64;57.44
40570;BME280;26270;34.428;-119.710;2022-12-07T00:06:03;101338.45;;;16.66;57.65
40570;BME280;26270;34.428;-119.710;2022-12-07T00:08:33;101342.61;;;16.67;57.89
40570;BME280;26270;34.428;-119.710;2022-12-07T00:11:02;101343.49;;;16.79;57.78
40570;BME280;26270;34.428;-119.710;2022-12-07T00:13:32;101349.26;;;16.56;58.16
40570;BME280;26270;34.428;-119.710;2022-12-07T00:16:02;101350.67;;;16.59;58.17
40570;BME280;26270;34.428;-119.710;2022-12-07T00:18:31;101353.16;;;16.60;58.01
40570;BME280;26270;34.428;-119.710;2022-12-07T00:21:00;101356.87;;;16.65;58.20
40570;BME280;26270;34.428;-119.710;2022-12-07T00:23:29;101358.32;;;16.51;58.54
40570;BME280;26270;34.428;-119.710;2022-12-07T00:26:04;101359.66;;;16.52;58.84
40570;BME280;26270;34.428;-119.710;2022-12-07T00:28:32;101358.28;;;16.46;59.12
40570;BME280;26270;34.428;-119.710;2022-12-07T00:31:03;101358.44;;;16.48;58.73
40570;BME280;26270;34.428;-119.710;2022-12-07T00:33:32;101361.41;;;16.42;58.99
40570;BME280;26270;34.428;-119.710;2022-12-07T00:36:01;101364.73;;;16.35;59.62
40570;BME280;26270;34.428;-119.710;2022-12-07T00:38:32;101367.20;;;16.35;59.84
40570;BME280;26270;34.428;-119.710;2022-12-07T00:41:02;101370.24;;;16.39;59.64
40570;BME280;26270;34.428;-119.710;2022-12-07T00:43:31;101371.63;;;16.50;60.05
40570;BME280;26270;34.428;-119.710;2022-12-07T00:46:00;101371.77;;;16.28;60.57
40570;BME280;26270;34.428;-119.710;2022-12-07T00:48:28;101371.62;;;16.46;60.27
40570;BME280;26270;34.428;-119.710;2022-12-07T00:50:57;101372.78;;;16.34;60.84
40570;BME280;26270;34.428;-119.710;2022-12-07T00:53:25;101373.10;;;16.27;60.83
40570;BME280;26270;34.428;-119.710;2022-12-07T00:55:53;101375.80;;;16.21;61.12
40570;BME280;26270;34.428;-119.710;2022-12-07T00:58:22;101378.62;;;16.23;61.06
40570;BME280;26270;34.428;-119.710;2022-12-07T01:00:50;101378.72;;;16.30;61.26
40570;BME280;26270;34.428;-119.710;2022-12-07T01:03:18;101377.57;;;16.13;61.98
40570;BME280;26270;34.428;-119.710;2022-12-07T01:05:51;101378.73;;;16.12;62.31
40570;BME280;26270;34.428;-119.710;2022-12-07T01:08:21;101376.02;;;16.16;62.27
40570;BME280;26270;34.428;-119.710;2022-12-07T01:10:58;101378.07;;;16.10;62.62
40570;BME280;26270;34.428;-119.710;2022-12-07T01:13:26;101379.85;;;16.01;62.50
40570;BME280;26270;34.428;-119.710;2022-12-07T01:15:58;101382.84;;;15.95;63.33
40570;BME280;26270;34.428;-119.710;2022-12-07T01:18:27;101384.72;;;16.03;63.07
40570;BME280;26270;34.428;-119.710;2022-12-07T01:21:00;101385.99;;;15.95;63.43
40570;BME280;26270;34.428;-119.710;2022-12-07T01:23:30;101389.16;;;15.99;63.68
40570;BME280;26270;34.428;-119.710;2022-12-07T01:26:00;101391.54;;;15.79;63.26
40570;BME280;26270;34.428;-119.710;2022-12-07T01:28:29;101390.35;;;15.80;63.63
40570;BME280;26270;34.428;-119.710;2022-12-07T01:31:00;101388.32;;;15.60;64.11
40570;BME280;26270;34.428;-119.710;2022-12-07T01:33:30;101387.49;;;15.62;63.82
40570;BME280;26270;34.428;-119.710;2022-12-07T01:36:02;101389.05;;;15.69;63.99
40570;BME280;26270;34.428;-119.710;2022-12-07T01:38:31;101390.48;;;15.71;63.99
40570;BME280;26270;34.428;-119.710;2022-12-07T01:41:00;101390.01;;;15.49;64.38
40570;BME280;26270;34.428;-119.710;2022-12-07T01:43:30;101389.34;;;15.75;64.29
40570;BME280;26270;34.428;-119.710;2022-12-07T01:45:59;101389.21;;;15.63;64.49
40570;BME280;26270;34.428;-119.710;2022-12-07T01:48:31;101393.45;;;15.56;64.70
40570;BME280;26270;34.428;-119.710;2022-12-07T01:51:03;101394.75;;;15.51;64.54
40570;BME280;26270;34.428;-119.710;2022-12-07T01:53:37;101396.71;;;15.50;63.23
40570;BME280;26270;34.428;-119.710;2022-12-07T01:56:07;101398.22;;;15.47;60.08
40570;BME280;26270;34.428;-119.710;2022-12-07T01:58:37;101403.44;;;15.63;59.71
40570;BME280;26270;34.428;-119.710;2022-12-07T02:01:06;101406.66;;;15.45;59.90
40570;BME280;26270;34.428;-119.710;2022-12-07T02:03:36;101407.94;;;15.33;59.43
40570;BME280;26270;34.428;-119.710;2022-12-07T02:06:08;101413.33;;;15.45;60.08
40570;BME280;26270;34.428;-119.710;2022-12-07T02:08:37;101412.63;;;15.38;61.14
40570;BME280;26270;34.428;-119.710;2022-12-07T02:11:08;101415.70;;;15.05;59.57
40570;BME280;26270;34.428;-119.710;2022-12-07T02:13:38;101419.45;;;15.16;59.75
40570;BME280;26270;34.428;-119.710;2022-12-07T02:16:16;101419.35;;;15.31;59.69
40570;BME280;26270;34.428;-119.710;2022-12-07T02:18:57;101420.56;;;15.22;59.67
40570;BME280;26270;34.428;-119.710;2022-12-07T02:21:33;101426.32;;;15.19;60.39
40570;BME280;26270;34.428;-119.710;2022-12-07T02:24:55;101426.38;;;14.90;60.70
40570;BME280;26270;34.428;-119.710;2022-12-07T02:27:47;101428.96;;;15.05;61.42
40570;BME280;26270;34.428;-119.710;2022-12-07T02:30:19;101433.38;;;15.01;61.37
40570;BME280;26270;34.428;-119.710;2022-12-07T02:32:56;101435.10;;;14.91;61.75
40570;BME280;26270;34.428;-119.710;2022-12-07T02:35:28;101434.69;;;14.87;61.69
40570;BME280;26270;34.428;-119.710;2022-12-07T02:38:03;101428.74;;;14.91;61.42
40570;BME280;26270;34.428;-119.710;2022-12-07T02:40:38;101434.83;;;14.74;61.60
40570;BME280;26270;34.428;-119.710;2022-12-07T02:43:11;101430.53;;;14.68;61.98
40570;BME280;26270;34.428;-119.710;2022-12-07T02:45:42;101427.90;;;14.53;62.24
40570;BME280;26270;34.428;-119.710;2022-12-07T02:48:14;101429.33;;;14.58;63.02
40570;BME280;26270;34.428;-119.710;2022-12-07T02:50:47;101432.14;;;14.63;62.93
40570;BME280;26270;34.428;-119.710;2022-12-07T02:53:32;101431.42;;;14.33;63.32
40570;BME280;26270;34.428;-119.710;2022-12-07T02:56:05;101428.83;;;14.35;62.79
40570;BME280;26270;34.428;-119.710;2022-12-07T02:58:44;101429.96;;;14.51;62.71
40570;BME280;26270;34.428;-119.710;2022-12-07T03:01:25;101432.62;;;14.43;62.15
40570;BME280;26270;34.428;-119.710;2022-12-07T03:04:05;101434.43;;;14.33;61.32
40570;BME280;26270;34.428;-119.710;2022-12-07T03:06:39;101436.74;;;14.30;60.46
40570;BME280;26270;34.428;-119.710;2022-12-07T03:09:16;101437.54;;;14.52;60.31
40570;BME280;26270;34.428;-119.710;2022-12-07T03:11:51;101439.93;;;14.34;59.81
40570;BME280;26270;34.428;-119.710;2022-12-07T03:14:26;101438.09;;;14.50;57.08
40570;BME280;26270;34.428;-119.710;2022-12-07T03:17:02;101436.65;;;14.51;57.00
40570;BME280;26270;34.428;-119.710;2022-12-07T03:19:33;101435.76;;;14.62;56.21
40570;BME280;26270;34.428;-119.710;2022-12-07T03:22:05;101437.84;;;14.49;57.20
40570;BME280;26270;34.428;-119.710;2022-12-07T03:24:40;101441.95;;;14.62;55.99
40570;BME280;26270;34.428;-119.710;2022-12-07T03:27:15;101443.53;;;14.26;57.05
40570;BME280;26270;34.428;-119.710;2022-12-07T03:29:48;101443.55;;;14.30;58.15
40570;BME280;26270;34.428;-119.710;2022-12-07T03:32:21;101448.20;;;14.09;58.72
40570;BME280;26270;34.428;-119.710;2022-12-07T03:34:56;101449.31;;;14.20;58.62
40570;BME280;26270;34.428;-119.710;2022-12-07T03:37:31;101453.55;;;14.17;58.95
40570;BME280;26270;34.428;-119.710;2022-12-07T03:40:10;101457.09;;;14.14;59.27
40570;BME280;26270;34.428;-119.710;2022-12-07T03:42:41;101453.56;;;14.23;59.10
40570;BME280;26270;34.428;-119.710;2022-12-07T03:45:10;101455.77;;;14.20;59.92
40570;BME280;26270;34.428;-119.710;2022-12-07T03:47:45;101454.19;;;14.13;59.25
40570;BME280;26270;34.428;-119.710;2022-12-07T03:50:19;101450.81;;;13.90;59.44
40570;BME280;26270;34.428;-119.710;2022-12-07T03:52:53;101452.90;;;14.03;60.39
40570;BME280;26270;34.428;-119.710;2022-12-07T03:55:28;101449.86;;;14.13;60.02
40570;BME280;26270;34.428;-119.710;2022-12-07T03:58:00;101450.80;;;13.94;60.19
40570;BME280;26270;34.428;-119.710;2022-12-07T04:00:31;101451.75;;;14.04;60.63
40570;BME280;26270;34.428;-119.710;2022-12-07T04:02:59;101449.38;;;13.83;60.58
40570;BME280;26270;34.428;-119.710;2022-12-07T04:05:28;101452.92;;;13.85;60.56
40570;BME280;26270;34.428;-119.710;2022-12-07T04:07:56;101455.21;;;13.88;60.77
40570;BME280;26270;34.428;-119.710;2022-12-07T04:10:25;101459.41;;;13.58;61.01
40570;BME280;26270;34.428;-119.710;2022-12-07T04:12:53;101459.68;;;13.70;60.90
40570;BME280;26270;34.428;-119.710;2022-12-07T04:15:22;101458.59;;;13.58;61.71
40570;BME280;26270;34.428;-119.710;2022-12-07T04:17:50;101463.54;;;13.63;61.34
40570;BME280;26270;34.428;-119.710;2022-12-07T04:20:19;101465.75;;;13.49;61.76
40570;BME280;26270;34.428;-119.710;2022-12-07T04:22:47;101468.86;;;13.54;61.44
40570;BME280;26270;34.428;-119.710;2022-12-07T04:25:16;101470.53;;;13.64;60.75
40570;BME280;26270;34.428;-119.710;2022-12-07T04:27:44;101469.30;;;13.71;61.18
40570;BME280;26270;34.428;-119.710;2022-12-07T04:30:13;101471.69;;;13.33;61.79
40570;BME280;26270;34.428;-119.710;2022-12-07T04:32:41;101474.10;;;13.44;62.17
40570;BME280;26270;34.428;-119.710;2022-12-07T04:35:10;101476.30;;;13.44;61.43
40570;BME280;26270;34.428;-119.710;2022-12-07T04:37:38;101477.01;;;12.94;63.14
40570;BME280;26270;34.428;-119.710;2022-12-07T04:40:08;101477.61;;;12.91;63.36
40570;BME280;26270;34.428;-119.710;2022-12-07T04:42:36;101477.63;;;13.02;63.47
40570;BME280;26270;34.428;-119.710;2022-12-07T04:45:05;101478.36;;;13.16;63.61
40570;BME280;26270;34.428;-119.710;2022-12-07T04:47:34;101474.86;;;13.06;62.98
40570;BME280;26270;34.428;-119.710;2022-12-07T04:50:02;101472.29;;;13.07;63.01
40570;BME280;26270;34.428;-119.710;2022-12-07T04:52:31;101478.77;;;13.28;62.15
40570;BME280;26270;34.428;-119.710;2022-12-07T04:54:59;101474.03;;;13.20;62.64
40570;BME280;26270;34.428;-119.710;2022-12-07T04:57:27;101477.18;;;12.77;63.61
40570;BME280;26270;34.428;-119.710;2022-12-07T04:59:55;101477.18;;;13.05;63.09
40570;BME280;26270;34.428;-119.710;2022-12-07T05:03:20;101480.00;;;12.93;63.14
40570;BME280;26270;34.428;-119.710;2022-12-07T05:05:48;101478.42;;;12.98;62.43
40570;BME280;26270;34.428;-119.710;2022-12-07T05:08:16;101479.38;;;12.79;62.31
40570;BME280;26270;34.428;-119.710;2022-12-07T05:10:44;101475.02;;;12.61;62.94
40570;BME280;26270;34.428;-119.710;2022-12-07T05:13:13;101476.87;;;12.92;62.43
40570;BME280;26270;34.428;-119.710;2022-12-07T05:15:41;101481.49;;;12.65;62.23
40570;BME280;26270;34.428;-119.710;2022-12-07T05:18:09;101481.28;;;12.80;61.92
40570;BME280;26270;34.428;-119.710;2022-12-07T05:20:37;101484.19;;;12.83;62.41
40570;BME280;26270;34.428;-119.710;2022-12-07T05:23:05;101483.01;;;12.88;61.72
40570;BME280;26270;34.428;-119.710;2022-12-07T05:25:34;101486.83;;;12.77;62.00
40570;BME280;26270;34.428;-119.710;2022-12-07T05:28:02;101493.04;;;12.70;62.34
40570;BME280;26270;34.428;-119.710;2022-12-07T05:30:31;101496.90;;;12.65;62.44
40570;BME280;26270;34.428;-119.710;2022-12-07T05:33:00;101499.69;;;12.71;61.97
40570;BME280;26270;34.428;-119.710;2022-12-07T05:35:28;101500.26;;;12.56;62.17
40570;BME280;26270;34.428;-119.710;2022-12-07T05:37:56;101502.37;;;12.64;62.62
40570;BME280;26270;34.428;-119.710;2022-12-07T05:40:25;101504.76;;;12.41;62.87
40570;BME280;26270;34.428;-119.710;2022-12-07T05:42:53;101507.65;;;12.53;62.88
40570;BME280;26270;34.428;-119.710;2022-12-07T05:45:21;101511.33;;;12.39;63.16
40570;BME280;26270;34.428;-119.710;2022-12-07T05:47:49;101511.14;;;12.44;62.97
40570;BME280;26270;34.428;-119.710;2022-12-07T05:50:18;101514.60;;;12.39;62.54
40570;BME280;26270;34.428;-119.710;2022-12-07T05:52:46;101517.63;;;12.39;63.07
40570;BME280;26270;34.428;-119.710;2022-12-07T05:55:14;101519.91;;;12.28;62.47
40570;BME280;26270;34.428;-119.710;2022-12-07T05:57:43;101519.99;;;12.45;62.41
40570;BME280;26270;34.428;-119.710;2022-12-07T06:00:13;101519.26;;;12.35;62.53
40570;BME280;26270;34.428;-119.710;2022-12-07T06:02:41;101523.72;;;12.24;62.60
40570;BME280;26270;34.428;-119.710;2022-12-07T06:05:09;101523.80;;;12.15;62.61
40570;BME280;26270;34.428;-119.710;2022-12-07T06:07:37;101521.41;;;12.28;62.11
40570;BME280;26270;34.428;-119.710;2022-12-07T06:10:06;101524.94;;;12.12;62.94
40570;BME280;26270;34.428;-119.710;2022-12-07T06:12:35;101527.36;;;12.01;62.43
40570;BME280;26270;34.428;-119.710;2022-12-07T06:15:03;101525.50;;;12.04;62.24
40570;BME280;26270;34.428;-119.710;2022-12-07T06:17:32;101525.66;;;12.18;62.05
40570;BME280;26270;34.428;-119.710;2022-12-07T06:20:00;101523.20;;;12.19;60.27
40570;BME280;26270;34.428;-119.710;2022-12-07T06:22:29;101527.59;;;12.18;61.60
40570;BME280;26270;34.428;-119.710;2022-12-07T06:24:57;101532.95;;;12.14;61.38
40570;BME280;26270;34.428;-119.710;2022-12-07T06:27:24;101531.45;;;12.19;59.88
40570;BME280;26270;34.428;-119.710;2022-12-07T06:29:52;101538.70;;;12.25;60.41
40570;BME280;26270;34.428;-119.710;2022-12-07T06:32:20;101540.29;;;12.12;60.64
40570;BME280;26270;34.428;-119.710;2022-12-07T06:34:48;101545.12;;;12.05;60.84
40570;BME280;26270;34.428;-119.710;2022-12-07T06:37:16;101546.36;;;11.99;60.96
40570;BME280;26270;34.428;-119.710;2022-12-07T06:39:45;101548.99;;;12.04;60.87
40570;BME280;26270;34.428;-119.710;2022-12-07T06:42:12;101550.02;;;11.94;59.80
40570;BME280;26270;34.428;-119.710;2022-12-07T06:44:41;101546.34;;;12.00;60.99
40570;BME280;26270;34.428;-119.710;2022-12-07T06:47:12;101550.41;;;12.16;60.70
40570;BME280;26270;34.428;-119.710;2022-12-07T06:49:39;101547.88;;;11.96;61.16
40570;BME280;26270;34.428;-119.710;2022-12-07T06:52:07;101554.11;;;11.87;60.57
40570;BME280;26270;34.428;-119.710;2022-12-07T06:54:40;101555.24;;;12.17;60.80
40570;BME280;26270;34.428;-119.710;2022-12-07T06:57:09;101557.67;;;11.90;61.07
40570;BME280;26270;34.428;-119.710;2022-12-07T06:59:38;101557.71;;;11.96;60.41
40570;BME280;26270;34.428;-119.710;2022-12-07T07:02:07;101555.59;;;11.92;59.98
40570;BME280;26270;34.428;-119.710;2022-12-07T07:04:35;101556.94;;;11.85;61.21
40570;BME280;26270;34.428;-119.710;2022-12-07T07:07:04;101557.88;;;11.91;61.23
40570;BME280;26270;34.428;-119.710;2022-12-07T07:09:32;101560.01;;;11.83;61.93
40570;BME280;26270;34.428;-119.710;2022-12-07T07:12:00;101560.90;;;11.69;61.95
40570;BME280;26270;34.428;-119.710;2022-12-07T07:14:28;101559.91;;;11.81;62.56
40570;BME280;26270;34.428;-119.710;2022-12-07T07:16:58;101560.42;;;11.69;61.87
40570;BME280;26270;34.428;-119.710;2022-12-07T07:19:26;101560.34;;;11.05;62.93
40570;BME280;26270;34.428;-119.710;2022-12-07T07:21:55;101560.79;;;11.35;62.95
40570;BME280;26270;34.428;-119.710;2022-12-07T07:24:24;101560.65;;;11.18;62.79
40570;BME280;26270;34.428;-119.710;2022-12-07T07:26:52;101563.25;;;11.54;63.07
40570;BME280;26270;34.428;-119.710;2022-12-07T07:29:20;101563.51;;;11.34;63.04
40570;BME280;26270;34.428;-119.710;2022-12-07T07:31:49;101562.69;;;11.39;63.03
40570;BME280;26270;34.428;-119.710;2022-12-07T07:34:17;101561.05;;;11.43;62.92
40570;BME280;26270;34.428;-119.710;2022-12-07T07:36:46;101562.76;;;11.16;63.86
40570;BME280;26270;34.428;-119.710;2022-12-07T07:39:16;101562.88;;;11.36;63.61
40570;BME280;26270;34.428;-119.710;2022-12-07T07:41:45;101566.92;;;11.14;64.15
40570;BME280;26270;34.428;-119.710;2022-12-07T07:44:14;101565.49;;;11.13;64.38
40570;BME280;26270;34.428;-119.710;2022-12-07T07:46:42;101564.95;;;11.18;64.18
40570;BME280;26270;34.428;-119.710;2022-12-07T07:49:11;101564.58;;;11.21;63.78
40570;BME280;26270;34.428;-119.710;2022-12-07T07:51:42;101565.36;;;11.29;63.55
40570;BME280;26270;34.428;-119.710;2022-12-07T07:54:11;101566.46;;;11.28;63.03
40570;BME280;26270;34.428;-119.710;2022-12-07T07:56:39;101566.96;;;11.07;63.61
40570;BME280;26270;34.428;-119.710;2022-12-07T07:59:07;101568.06;;;11.03;64.28
40570;BME280;26270;34.428;-119.710;2022-12-07T08:01:35;101569.33;;;11.15;63.11
40570;BME280;26270;34.428;-119.710;2022-12-07T08:04:03;101571.93;;;11.30;63.83
40570;BME280;26270;34.428;-119.710;2022-12-07T08:06:32;101572.77;;;11.05;63.63
40570;BME280;26270;34.428;-119.710;2022-12-07T08:40:42;101585.34;;;10.62;66.31
40570;BME280;26270;34.428;-119.710;2022-12-07T08:43:10;101585.15;;;10.52;65.84
40570;BME280;26270;34.428;-119.710;2022-12-07T08:45:40;101587.07;;;10.36;66.48
40570;BME280;26270;34.428;-119.710;2022-12-07T08:48:11;101585.39;;;10.39;66.54
40570;BME280;26270;34.428;-119.710;2022-12-07T08:50:41;101586.27;;;10.31;66.58
40570;BME280;26270;34.428;-119.710;2022-12-07T08:53:09;101582.60;;;10.45;65.88
40570;BME280;26270;34.428;-119.710;2022-12-07T08:55:39;101580.87;;;10.34;66.48
40570;BME280;26270;34.428;-119.710;2022-12-07T08:58:07;101581.31;;;10.69;66.61
40570;BME280;26270;34.428;-119.710;2022-12-07T09:00:36;101578.88;;;10.64;65.67
40570;BME280;26270;34.428;-119.710;2022-12-07T09:03:05;101581.37;;;10.71;65.52
40570;BME280;26270;34.428;-119.710;2022-12-07T09:05:33;101580.03;;;10.77;65.45
40570;BME280;26270;34.428;-119.710;2022-12-07T09:08:02;101585.57;;;10.55;65.38
40570;BME280;26270;34.428;-119.710;2022-12-07T09:10:31;101584.78;;;10.65;65.29
40570;BME280;26270;34.428;-119.710;2022-12-07T09:12:59;101588.87;;;10.43;66.12
40570;BME280;26270;34.428;-119.710;2022-12-07T09:15:28;101593.44;;;10.47;66.59
40570;BME280;26270;34.428;-119.710;2022-12-07T09:17:57;101592.81;;;10.32;65.55
40570;BME280;26270;34.428;-119.710;2022-12-07T09:20:27;101592.23;;;10.35;66.35
40570;BME280;26270;34.428;-119.710;2022-12-07T09:22:57;101593.05;;;10.24;66.42
40570;BME280;26270;34.428;-119.710;2022-12-07T09:25:25;101592.81;;;10.38;66.48
40570;BME280;26270;34.428;-119.710;2022-12-07T09:27:57;101594.24;;;10.42;66.10
40570;BME280;26270;34.428;-119.710;2022-12-07T09:30:25;101590.25;;;10.35;65.68
40570;BME280;26270;34.428;-119.710;2022-12-07T09:32:54;101593.28;;;10.31;65.79
40570;BME280;26270;34.428;-119.710;2022-12-07T09:35:23;101596.61;;;10.40;66.33
40570;BME280;26270;34.428;-119.710;2022-12-07T09:37:51;101598.22;;;10.17;66.64
40570;BME280;26270;34.428;-119.710;2022-12-07T09:40:21;101598.74;;;10.19;66.79
40570;BME280;26270;34.428;-119.710;2022-12-07T09:42:52;101604.53;;;10.25;67.18
40570;BME280;26270;34.428;-119.710;2022-12-07T09:45:24;101601.34;;;10.22;66.90
40570;BME280;26270;34.428;-119.710;2022-12-07T09:47:52;101601.53;;;10.24;67.49
40570;BME280;26270;34.428;-119.710;2022-12-07T09:50:24;101599.90;;;10.09;67.00
40570;BME280;26270;34.428;-119.710;2022-12-07T09:52:55;101596.04;;;10.19;66.91
40570;BME280;26270;34.428;-119.710;2022-12-07T09:55:33;101596.57;;;10.10;67.62
40570;BME280;26270;34.428;-119.710;2022-12-07T09:58:02;101596.69;;;10.11;67.66
40570;BME280;26270;34.428;-119.710;2022-12-07T10:00:30;101597.66;;;10.20;67.14
40570;BME280;26270;34.428;-119.710;2022-12-07T10:03:00;101595.53;;;10.15;67.15
40570;BME280;26270;34.428;-119.710;2022-12-07T10:05:32;101593.95;;;10.23;67.06
40570;BME280;26270;34.428;-119.710;2022-12-07T10:08:02;101592.58;;;10.18;67.43
40570;BME280;26270;34.428;-119.710;2022-12-07T10:10:32;101592.90;;;10.08;67.21
40570;BME280;26270;34.428;-119.710;2022-12-07T10:13:04;101592.98;;;10.01;67.81
40570;BME280;26270;34.428;-119.710;2022-12-07T10:15:45;101595.76;;;10.06;67.38
40570;BME280;26270;34.428;-119.710;2022-12-07T10:18:31;101594.75;;;10.14;67.66
40570;BME280;26270;34.428;-119.710;2022-12-07T10:21:05;101593.41;;;10.01;67.41
40570;BME280;26270;34.428;-119.710;2022-12-07T10:23:33;101593.91;;;10.04;67.48
40570;BME280;26270;34.428;-119.710;2022-12-07T10:26:20;101592.41;;;10.04;67.34
40570;BME280;26270;34.428;-119.710;2022-12-07T10:28:49;101594.31;;;9.91;67.55
40570;BME280;26270;34.428;-119.710;2022-12-07T10:31:19;101597.73;;;9.87;67.74
40570;BME280;26270;34.428;-119.710;2022-12-07T10:33:51;101600.12;;;10.07;67.71
40570;BME280;26270;34.428;-119.710;2022-12-07T10:36:24;101603.68;;;10.18;67.28
40570;BME280;26270;34.428;-119.710;2022-12-07T10:38:59;101603.70;;;10.08;67.85
40570;BME280;26270;34.428;-119.710;2022-12-07T10:41:28;101600.45;;;10.11;67.68
40570;BME280;26270;34.428;-119.710;2022-12-07T10:43:58;101604.68;;;10.12;67.61
40570;BME280;26270;34.428;-119.710;2022-12-07T10:46:39;101608.32;;;10.17;67.74
40570;BME280;26270;34.428;-119.710;2022-12-07T10:49:34;101609.05;;;10.16;67.47
40570;BME280;26270;34.428;-119.710;2022-12-07T10:53:44;101608.07;;;10.11;67.59
40570;BME280;26270;34.428;-119.710;2022-12-07T10:56:29;101608.10;;;9.81;67.65
40570;BME280;26270;34.428;-119.710;2022-12-07T10:59:14;101608.97;;;9.89;67.87
40570;BME280;26270;34.428;-119.710;2022-12-07T11:01:53;101610.92;;;9.88;68.13
40570;BME280;26270;34.428;-119.710;2022-12-07T11:04:30;101610.79;;;10.03;67.96
40570;BME280;26270;34.428;-119.710;2022-12-07T11:07:10;101612.60;;;10.19;66.94
40570;BME280;26270;34.428;-119.710;2022-12-07T11:09:58;101610.58;;;10.03;66.77
40570;BME280;26270;34.428;-119.710;2022-12-07T11:12:38;101609.94;;;10.07;67.34
40570;BME280;26270;34.428;-119.710;2022-12-07T11:15:16;101607.47;;;9.85;67.14
40570;BME280;26270;34.428;-119.710;2022-12-07T11:17:52;101608.20;;;10.06;66.86
40570;BME280;26270;34.428;-119.710;2022-12-07T11:20:43;101606.89;;;10.17;66.62
40570;BME280;26270;34.428;-119.710;2022-12-07T11:23:21;101605.89;;;9.86;67.00
40570;BME280;26270;34.428;-119.710;2022-12-07T11:25:59;101605.82;;;9.98;67.20
40570;BME280;26270;34.428;-119.710;2022-12-07T11:28:43;101604.32;;;10.02;67.01
40570;BME280;26270;34.428;-119.710;2022-12-07T11:31:23;101607.22;;;9.91;67.15
40570;BME280;26270;34.428;-119.710;2022-12-07T11:34:00;101613.15;;;9.86;67.38
40570;BME280;26270;34.428;-119.710;2022-12-07T11:36:38;101616.08;;;9.75;67.88
40570;BME280;26270;34.428;-119.710;2022-12-07T11:39:16;101617.93;;;9.74;68.26
40570;BME280;26270;34.428;-119.710;2022-12-07T11:41:51;101617.05;;;9.81;68.24
40570;BME280;26270;34.428;-119.710;2022-12-07T11:44:27;101617.60;;;9.75;68.24
40570;BME280;26270;34.428;-119.710;2022-12-07T11:47:05;101617.04;;;9.64;67.80
40570;BME280;26270;34.428;-119.710;2022-12-07T11:49:43;101617.50;;;9.73;68.09
40570;BME280;26270;34.428;-119.710;2022-12-07T11:52:22;101617.72;;;9.76;67.95
40570;BME280;26270;34.428;-119.710;2022-12-07T11:54:53;101616.18;;;9.58;68.19
40570;BME280;26270;34.428;-119.710;2022-12-07T11:57:28;101616.39;;;9.70;67.95
40570;BME280;26270;34.428;-119.710;2022-12-07T12:00:06;101617.85;;;9.64;68.42
40570;BME280;26270;34.428;-119.710;2022-12-07T12:02:46;101620.60;;;9.78;68.11
40570;BME280;26270;34.428;-119.710;2022-12-07T12:05:20;101625.55;;;9.42;68.55
40570;BME280;26270;34.428;-119.710;2022-12-07T12:07:52;101625.18;;;9.46;68.83
40570;BME280;26270;34.428;-119.710;2022-12-07T12:10:31;101622.78;;;9.47;68.87
40570;BME280;26270;34.428;-119.710;2022-12-07T12:13:19;101621.02;;;9.48;68.73
40570;BME280;26270;34.428;-119.710;2022-12-07T12:16:04;101620.57;;;9.49;68.99
40570;BME280;26270;34.428;-119.710;2022-12-07T12:18:46;101622.01;;;9.44;69.06
40570;BME280;26270;34.428;-119.710;2022-12-07T12:21:24;101621.37;;;9.27;69.23
40570;BME280;26270;34.428;-119.710;2022-12-07T12:23:58;101619.04;;;9.23;69.37
40570;BME280;26270;34.428;-119.710;2022-12-07T12:26:30;101619.60;;;9.40;69.33
40570;BME280;26270;34.428;-119.710;2022-12-07T12:29:02;101621.34;;;9.31;69.54
40570;BME280;26270;34.428;-119.710;2022-12-07T12:31:34;101624.03;;;9.31;69.26
40570;BME280;26270;34.428;-119.710;2022-12-07T12:34:10;101625.22;;;9.32;69.46
40570;BME280;26270;34.428;-119.710;2022-12-07T12:36:57;101629.72;;;9.33;69.36
40570;BME280;26270;34.428;-119.710;2022-12-07T12:39:25;101636.14;;;9.38;69.54
40570;BME280;26270;34.428;-119.710;2022-12-07T12:41:59;101640.44;;;9.35;69.19
40570;BME280;26270;34.428;-119.710;2022-12-07T12:45:25;101649.01;;;9.27;69.25
40570;BME280;26270;34.428;-119.710;2022-12-07T12:47:58;101658.81;;;9.22;69.61
40570;BME280;26270;34.428;-119.710;2022-12-07T12:50:28;101667.81;;;9.26;69.51
40570;BME280;26270;34.428;-119.710;2022-12-07T12:53:03;101671.27;;;9.33;68.81
40570;BME280;26270;34.428;-119.710;2022-12-07T12:56:29;101676.26;;;9.30;69.59
40570;BME280;26270;34.428;-119.710;2022-12-07T12:59:32;101675.63;;;9.40;68.57
40570;BME280;26270;34.428;-119.710;2022-12-07T13:02:20;101679.97;;;9.07;69.81
40570;BME280;26270;34.428;-119.710;2022-12-07T13:04:53;101674.81;;;8.73;71.32
40570;BME280;26270;34.428;-119.710;2022-12-07T13:07:57;101677.91;;;8.63;71.21
40570;BME280;26270;34.428;-119.710;2022-12-07T13:10:34;101679.96;;;8.97;70.75
40570;BME280;26270;34.428;-119.710;2022-12-07T13:13:21;101678.22;;;9.35;69.42
40570;BME280;26270;34.428;-119.710;2022-12-07T13:15:54;101682.23;;;9.37;69.32
40570;BME280;26270;34.428;-119.710;2022-12-07T13:18:24;101683.28;;;9.51;68.89
40570;BME280;26270;34.428;-119.710;2022-12-07T13:20:55;101686.16;;;9.23;68.76
40570;BME280;26270;34.428;-119.710;2022-12-07T13:23:28;101689.56;;;9.32;68.95